Time;durP1;ratioP1;P1;durP2;ratioP2;P2;SDS_P1;SDS_P2;PMS_P1;PMS_P2;Temp;Humidity;BMP_temperature;BMP_pressure;BME280_temperature;BME280_humidity;BME280_pressure;Samples;Min_cycle;Max_cycle;Signal;HPM_P1;HPM_P2
2023/04/05 00:01:20;;;;;;;1999.90;999.90;;;;;;;-1.26;100.00;95732.91;5063729;28;20182;-66
2023/04/05 00:03:46;;;;;;;1999.90;999.90;;;;;;;-1.33;100.00;95727.25;5063874;28;20163;-66
2023/04/05 00:06:12;;;;;;;1999.90;999.90;;;;;;;-1.34;100.00;95723.00;5064118;28;20371;-66
2023/04/05 00:08:37;;;;;;;1999.90;999.90;;;;;;;-1.36;100.00;95727.88;5063529;28;20166;-66
2023/04/05 00:11:02;;;;;;;1999.90;999.90;;;;;;;-1.36;100.00;95722.53;5063796;28;20195;-65
2023/04/05 00:13:28;;;;;;;1999.90;999.90;;;;;;;-1.39;100.00;95723.16;5063500;28;20169;-66
2023/04/05 00:15:56;;;;;;;1999.90;999.90;;;;;;;-1.42;100.00;95718.47;5063493;28;20166;-65
2023/04/05 00:18:22;;;;;;;1999.90;999.90;;;;;;;-1.41;100.00;95715.47;5064358;28;20166;-64
2023/04/05 00:20:49;;;;;;;1999.90;999.90;;;;;;;-1.45;100.00;95719.88;5064296;28;20186;-65
2023/04/05 00:23:16;;;;;;;1999.90;999.90;;;;;;;-1.46;100.00;95717.53;5063572;28;20201;-65
2023/04/05 00:25:42;;;;;;;1999.90;999.90;;;;;;;-1.50;100.00;95716.56;5064051;28;20162;-66
2023/04/05 00:28:08;;;;;;;1999.90;999.90;;;;;;;-1.50;100.00;95716.56;5063081;28;20173;-66
2023/04/05 00:30:33;;;;;;;1999.90;999.90;;;;;;;-1.48;100.00;95717.06;5063120;28;20213;-66
2023/04/05 00:32:59;;;;;;;1999.90;999.90;;;;;;;-1.50;100.00;95711.22;5063401;28;20162;-67
2023/04/05 00:35:27;;;;;;;1999.90;999.90;;;;;;;-1.50;100.00;95711.22;5064094;28;20207;-68
2023/04/05 00:37:52;;;;;;;1999.90;999.90;;;;;;;-1.60;100.00;95707.00;5063391;28;20166;-67
2023/04/05 00:40:18;;;;;;;1999.90;999.90;;;;;;;-1.62;100.00;95711.91;5063288;28;20204;-67
2023/04/05 00:42:43;;;;;;;1999.90;999.90;;;;;;;-1.66;100.00;95708.28;5063247;28;20356;-67
2023/04/05 00:45:09;;;;;;;1999.90;999.90;;;;;;;-1.66;100.00;95705.59;5063451;28;20166;-67
2023/04/05 00:47:35;;;;;;;1999.90;999.90;;;;;;;-1.66;100.00;95712.84;5063245;28;20158;-66
2023/04/05 00:50:02;;;;;;;1999.90;999.90;;;;;;;-1.72;100.00;95703.41;5063714;28;20249;-67
2023/04/05 00:52:28;;;;;;;1999.90;999.90;;;;;;;-1.79;100.00;95703.13;5062721;28;20202;-67
2023/04/05 00:54:53;;;;;;;1999.90;999.90;;;;;;;-1.84;100.00;95701.38;5063601;28;20190;-66
2023/04/05 00:57:19;;;;;;;1999.90;999.90;;;;;;;-1.90;100.00;95696.53;5063164;28;20162;-65
2023/04/05 00:59:45;;;;;;;1999.90;999.90;;;;;;;-1.93;100.00;95689.91;5063817;28;20161;-66
2023/04/05 01:02:24;;;;;;;1999.90;999.90;;;;;;;-1.92;100.00;95683.47;5063845;28;20166;-66
2023/04/05 01:04:56;;;;;;;1999.90;999.90;;;;;;;-1.94;100.00;95690.22;5063604;28;20288;-66
2023/04/05 01:07:48;;;;;;;1999.90;999.90;;;;;;;-1.91;100.00;95689.56;5065588;28;20162;-66
2023/04/05 01:10:16;;;;;;;1999.90;999.90;;;;;;;-1.93;100.00;95694.47;5067285;28;20193;-66
2023/04/05 01:12:43;;;;;;;1999.90;999.90;;;;;;;-1.96;100.00;95682.53;5066774;28;20166;-66
2023/04/05 01:15:10;;;;;;;1999.90;999.90;;;;;;;-1.98;100.00;95681.25;5066952;28;20216;-65
2023/04/05 01:17:35;;;;;;;1999.90;999.90;;;;;;;-1.99;100.00;95679.69;5066459;28;20170;-66
2023/04/05 01:20:09;;;;;;;1999.90;999.90;;;;;;;-1.97;100.00;95675.59;5066508;28;20250;-65
2023/04/05 01:22:44;;;;;;;1999.90;999.90;;;;;;;-1.95;100.00;95669.91;5066977;28;20166;-66
2023/04/05 01:25:30;;;;;;;1999.90;999.90;;;;;;;-1.99;100.00;95666.31;5067000;28;20173;-66
2023/04/05 01:28:11;;;;;;;1999.90;999.90;;;;;;;-2.00;100.00;95664.75;5066696;28;20166;-66
2023/04/05 01:30:38;;;;;;;1999.90;999.90;;;;;;;-2.07;100.00;95664.44;5065967;28;20263;-66
2023/04/05 01:33:19;;;;;;;1999.90;999.90;;;;;;;-2.11;100.00;95658.16;5066408;28;20170;-66
2023/04/05 01:35:54;;;;;;;1999.90;999.90;;;;;;;-2.14;100.00;95653.44;5066516;28;20158;-67
2023/04/05 01:38:24;;;;;;;1999.90;999.90;;;;;;;-2.14;100.00;95646.19;5066713;28;20158;-67
2023/04/05 01:40:50;;;;;;;1999.90;999.90;;;;;;;-2.10;100.00;95643.66;5065993;28;20509;-66
2023/04/05 01:43:16;;;;;;;1999.90;999.90;;;;;;;-2.08;100.00;95641.47;5065945;28;20209;-66
2023/04/05 01:45:43;;;;;;;1999.90;999.90;;;;;;;-2.17;100.00;95643.34;5065831;28;20194;-66
2023/04/05 01:48:09;;;;;;;1999.90;999.90;;;;;;;-2.21;100.00;95643.22;5066423;28;20530;-65
2023/04/05 01:50:34;;;;;;;1999.90;999.90;;;;;;;-2.24;100.00;95637.69;5065530;28;20196;-66
2023/04/05 01:53:00;;;;;;;1999.90;999.90;;;;;;;-2.26;100.00;95634.56;5065810;28;20173;-66
2023/04/05 01:55:25;;;;;;;1999.90;999.90;;;;;;;-2.31;100.00;95640.06;5065837;28;20181;-66
2023/04/05 01:57:53;;;;;;;1999.90;999.90;;;;;;;-2.34;100.00;95638.81;5065823;28;20170;-66
2023/04/05 02:00:18;;;;;;;1999.90;999.90;;;;;;;-2.32;100.00;95627.81;5065612;28;20167;-66
2023/04/05 02:02:43;;;;;;;1999.90;999.90;;;;;;;-2.32;100.00;95635.81;5065627;28;20245;-66
2023/04/05 02:05:09;;;;;;;1999.90;999.90;;;;;;;-2.32;100.00;95630.47;5065523;28;20200;-67
2023/04/05 02:07:34;;;;;;;1999.90;999.90;;;;;;;-2.30;100.00;95623.72;5065612;28;20193;-67
2023/04/05 02:10:00;;;;;;;1999.90;999.90;;;;;;;-2.33;100.00;95628.91;5065562;28;20174;-66
2023/04/05 02:12:25;;;;;;;1999.90;999.90;;;;;;;-2.36;100.00;95624.19;5065412;28;20201;-66
2023/04/05 02:14:51;;;;;;;1999.90;999.90;;;;;;;-2.43;100.00;95618.53;5066008;28;20170;-66
2023/04/05 02:17:17;;;;;;;1999.90;999.90;;;;;;;-2.42;100.00;95620.09;5064932;28;20240;-66
2023/04/05 02:19:45;;;;;;;1999.90;999.90;;;;;;;-2.44;100.00;95623.09;5065299;28;20193;-67
2023/04/05 02:22:10;;;;;;;1999.90;999.90;;;;;;;-2.47;100.00;95612.25;5065806;28;20220;-67
2023/04/05 02:24:36;;;;;;;1999.90;999.90;;;;;;;-2.44;100.00;95606.28;5065450;28;20174;-66
2023/04/05 02:27:02;;;;;;;1999.90;999.90;;;;;;;-2.51;100.00;95605.97;5065722;28;20224;-67
2023/04/05 02:29:28;;;;;;;1999.90;999.90;;;;;;;-2.52;100.00;95615.88;5064968;28;20240;-67
2023/04/05 02:31:53;;;;;;;1999.90;999.90;;;;;;;-2.51;100.00;95605.97;5065314;28;20418;-67
2023/04/05 02:34:21;;;;;;;1999.90;999.90;;;;;;;-2.51;100.00;95603.28;5065015;28;20170;-67
2023/04/05 02:36:47;;;;;;;1999.90;999.90;;;;;;;-2.55;100.00;95594.34;5065524;28;20165;-67
2023/04/05 02:39:12;;;;;;;1999.90;999.90;;;;;;;-2.58;100.00;95594.97;5064900;28;20245;-66
2023/04/05 02:41:38;;;;;;;1999.90;999.90;;;;;;;-2.62;100.00;95589.44;5064872;28;20173;-67
2023/04/05 02:44:03;;;;;;;1999.90;999.90;;;;;;;-2.65;100.00;95590.09;5065327;28;20166;-66
2023/04/05 02:46:29;;;;;;;1999.90;999.90;;;;;;;-2.60;100.00;95597.94;5065167;28;20177;-67
2023/04/05 02:48:54;;;;;;;1999.90;999.90;;;;;;;-2.57;100.00;95591.97;5065239;28;20170;-65
2023/04/05 02:51:19;;;;;;;1999.90;999.90;;;;;;;-2.55;100.00;95591.66;5064868;28;20220;-67
2023/04/05 02:53:45;;;;;;;1999.90;999.90;;;;;;;-2.58;100.00;95587.75;5064822;28;20196;-66
2023/04/05 02:56:12;;;;;;;1999.90;999.90;;;;;;;-2.59;100.00;95590.72;5064507;28;20166;-67
2023/04/05 02:58:38;;;;;;;1999.90;999.90;;;;;;;-2.66;100.00;95582.41;5065401;28;20172;-69
2023/04/05 03:01:06;;;;;;;1999.90;999.90;;;;;;;-2.74;100.00;95585.88;5065074;28;20240;-66
2023/04/05 03:03:36;;;;;;;1999.90;999.90;;;;;;;-2.77;100.00;95575.81;5064901;28;20254;-66
2023/04/05 03:06:08;;;;;;;1999.90;999.90;;;;;;;-2.73;100.00;95582.09;5064425;28;20166;-68
2023/04/05 03:08:38;;;;;;;1999.90;999.90;;;;;;;-2.75;100.00;95573.59;5064101;28;20162;-68
2023/04/05 03:11:06;;;;;;;1999.90;999.90;;;;;;;-2.74;100.00;95572.50;5064302;28;20196;-67
2023/04/05 03:13:32;;;;;;;1999.90;999.90;;;;;;;-2.74;100.00;95569.84;5064167;28;20189;-66
2023/04/05 03:15:57;;;;;;;1999.90;999.90;;;;;;;-2.76;100.00;95572.03;5064243;28;20166;-67
2023/04/05 03:18:25;;;;;;;1999.90;999.90;;;;;;;-2.74;100.00;95565.25;5064420;28;20173;-67
2023/04/05 03:20:55;;;;;;;1999.90;999.90;;;;;;;-2.75;100.00;95558.34;5064779;28;20166;-67
2023/04/05 03:23:27;;;;;;;1999.90;999.90;;;;;;;-2.75;100.00;95552.22;5064053;28;20177;-67
2023/04/05 03:25:55;;;;;;;1999.90;999.90;;;;;;;-2.77;100.00;95549.09;5064640;28;20181;-66
2023/04/05 03:28:22;;;;;;;1999.90;999.90;;;;;;;-2.76;100.00;95556.00;5064003;28;20197;-67
2023/04/05 03:30:47;;;;;;;1999.90;999.90;;;;;;;-2.76;100.00;95550.66;5063074;28;20232;-67
2023/04/05 03:33:13;;;;;;;1999.90;999.90;;;;;;;-2.76;100.00;95545.31;5063891;28;20174;-66
2023/04/05 03:35:38;;;;;;;1999.90;999.90;;;;;;;-2.76;100.00;95545.31;5064483;28;20165;-67
2023/04/05 03:38:04;;;;;;;1999.90;999.90;;;;;;;-2.74;100.00;95540.44;5064346;28;20173;-68
2023/04/05 03:40:30;;;;;;;1999.90;999.90;;;;;;;-2.72;100.00;95540.91;5063833;28;20194;-67
2023/04/05 03:42:55;;;;;;;1999.90;999.90;;;;;;;-2.74;100.00;95541.22;5064639;28;20216;-67
2023/04/05 03:45:20;;;;;;;1999.90;999.90;;;;;;;-2.70;100.00;95534.13;5064061;28;20170;-67
2023/04/05 03:47:46;;;;;;;1999.90;999.90;;;;;;;-2.68;100.00;95533.81;5064034;28;20201;-66
2023/04/05 03:50:11;;;;;;;1999.90;999.90;;;;;;;-2.64;100.00;95532.09;5063676;28;20176;-66
2023/04/05 03:52:37;;;;;;;1999.90;999.90;;;;;;;-2.61;100.00;95536.81;5063596;28;20205;-65
2023/04/05 03:55:02;;;;;;;1999.90;999.90;;;;;;;-2.61;100.00;95542.16;5063604;28;20220;-66
2023/04/05 03:57:29;;;;;;;1999.90;999.90;;;;;;;-2.62;100.00;95536.00;5063634;28;20174;-66
2023/04/05 03:59:54;;;;;;;1999.90;999.90;;;;;;;-2.67;100.00;95535.38;5063718;28;20181;-66
2023/04/05 04:02:20;;;;;;;1999.90;999.90;;;;;;;-2.67;100.00;95538.06;5063679;28;20182;-66
2023/04/05 04:04:46;;;;;;;1999.90;999.90;;;;;;;-2.71;100.00;95537.13;5063575;28;20166;-66
2023/04/05 04:07:11;;;;;;;1999.90;999.90;;;;;;;-2.79;100.00;95535.25;5064267;28;20188;-66
2023/04/05 04:09:37;;;;;;;1999.90;999.90;;;;;;;-2.79;100.00;95536.03;5063743;28;20245;-66
2023/04/05 04:12:02;;;;;;;1999.90;999.90;;;;;;;-2.78;100.00;95539.47;5064004;28;20224;-65
2023/04/05 04:14:28;;;;;;;1999.90;999.90;;;;;;;-2.76;100.00;95531.94;5063445;28;20170;-66
2023/04/05 04:16:53;;;;;;;1999.90;999.90;;;;;;;-2.75;100.00;95533.50;5063970;28;20200;-65
2023/04/05 04:19:19;;;;;;;1999.90;999.90;;;;;;;-2.81;100.00;95527.56;5063761;28;20182;-68
2023/04/05 04:21:44;;;;;;;1999.90;999.90;;;;;;;-2.84;100.00;95524.72;5063544;28;20170;-68
2023/04/05 04:24:17;;;;;;;1999.90;999.90;;;;;;;-2.87;100.00;95534.16;5063940;28;20201;-68
2023/04/05 04:26:47;;;;;;;1999.90;999.90;;;;;;;-2.88;100.00;95534.47;5063832;28;20215;-68
2023/04/05 04:29:14;;;;;;;1999.90;999.90;;;;;;;-2.88;100.00;95535.25;5063679;28;20170;-66
2023/04/05 04:31:44;;;;;;;1999.90;999.90;;;;;;;-2.87;100.00;95534.16;5064069;28;20224;-67
2023/04/05 04:34:10;;;;;;;1999.90;999.90;;;;;;;-2.86;100.00;95535.72;5063830;28;20245;-67
2023/04/05 04:36:38;;;;;;;1999.90;999.90;;;;;;;-2.85;100.00;95539.97;5063729;28;20166;-66
2023/04/05 04:39:06;;;;;;;1999.90;999.90;;;;;;;-2.83;100.00;95532.44;5063830;28;20174;-67
2023/04/05 04:41:32;;;;;;;1999.90;999.90;;;;;;;-2.86;100.00;95534.94;5066144;28;20196;-69
2023/04/05 04:44:01;;;;;;;1999.90;999.90;;;;;;;-2.88;100.00;95526.47;5067612;28;20193;-68
2023/04/05 04:46:29;;;;;;;1999.90;999.90;;;;;;;-2.89;100.00;95535.56;5067653;28;20225;-68
2023/04/05 04:48:58;;;;;;;1999.90;999.90;;;;;;;-2.90;100.00;95539.34;5067691;28;20197;-67
2023/04/05 04:51:24;;;;;;;1999.90;999.90;;;;;;;-2.87;100.00;95533.38;5067218;28;20277;-66
2023/04/05 04:53:50;;;;;;;1999.90;999.90;;;;;;;-2.79;100.00;95529.91;5066891;28;20190;-66
2023/04/05 04:56:15;;;;;;;1999.90;999.90;;;;;;;-2.65;100.00;95536.66;5067181;28;20193;-66
2023/04/05 04:58:41;;;;;;;1999.90;999.90;;;;;;;-2.44;100.00;95536.78;5066605;28;20170;-68
2023/04/05 05:01:08;;;;;;;1999.90;999.90;;;;;;;-2.10;100.00;95526.81;5067236;28;20176;-67
2023/04/05 05:03:35;;;;;;;1999.90;999.90;;;;;;;-1.75;100.00;95522.09;5067455;28;20213;-65
2023/04/05 05:06:01;;;;;;;1999.90;999.90;;;;;;;-1.31;100.00;95526.91;5066966;28;20177;-67
2023/04/05 05:08:26;;;;;;;1999.90;999.90;;;;;;;-0.92;100.00;95534.47;5066752;28;20182;-66
2023/04/05 05:10:52;;;;;;;1999.90;999.90;;;;;;;-0.54;100.00;95546.63;5066444;28;20206;-65
2023/04/05 05:13:17;;;;;;;1999.90;999.90;;;;;;;-0.18;100.00;95554.03;5066506;28;20178;-67
2023/04/05 05:15:43;;;;;;;1999.90;999.90;;;;;;;0.11;100.00;95558.47;5066767;28;20179;-65
2023/04/05 05:18:09;;;;;;;1999.90;999.90;;;;;;;0.61;100.00;95567.78;5066072;28;20243;-65
2023/04/05 05:20:34;;;;;;;1999.90;999.90;;;;;;;0.86;100.00;95569.38;5066949;28;20211;-64
2023/04/05 05:23:00;;;;;;;1999.90;999.90;;;;;;;1.25;100.00;95578.63;5066786;28;20245;-66
2023/04/05 05:25:26;;;;;;;1999.90;999.90;;;;;;;1.40;100.00;95581.38;5066273;28;20178;-67
2023/04/05 05:27:51;;;;;;;1999.90;999.90;;;;;;;1.53;100.00;95580.22;5066262;28;20200;-65
2023/04/05 05:30:17;;;;;;;1999.90;999.90;;;;;;;1.56;100.00;95590.31;5065947;28;20216;-66
2023/04/05 05:32:43;;;;;;;1999.90;999.90;;;;;;;1.69;100.00;95594.53;5066082;28;20170;-65
2023/04/05 05:35:08;;;;;;;1999.90;999.90;;;;;;;1.92;100.00;95592.88;5066728;28;20181;-65
2023/04/05 05:37:35;;;;;;;1999.90;999.90;;;;;;;2.18;100.00;95590.50;5066593;28;20174;-67
2023/04/05 05:40:00;;;;;;;1999.90;999.90;;;;;;;2.76;100.00;95589.69;5066470;28;20487;-68
2023/04/05 05:42:26;;;;;;;1999.90;999.90;;;;;;;3.24;100.00;95583.88;5065822;28;20170;-66
2023/04/05 05:44:52;;;;;;;1999.90;999.90;;;;;;;3.73;100.00;95588.78;5066248;28;20194;-66
2023/04/05 05:47:18;;;;;;;1999.90;999.90;;;;;;;4.14;100.00;95588.06;5065846;28;20177;-67
2023/04/05 05:49:43;;;;;;;1999.90;999.90;;;;;;;4.50;100.00;95587.56;5065780;28;20175;-71
2023/04/05 05:52:08;;;;;;;1999.90;999.90;;;;;;;5.10;100.00;95602.91;5065081;28;20196;-72
2023/04/05 05:54:34;;;;;;;1999.90;999.90;;;;;;;5.16;100.00;95596.03;5065976;28;20193;-70
2023/04/05 05:57:01;;;;;;;1999.90;999.90;;;;;;;5.21;100.00;95603.84;5065736;28;20174;-72
2023/04/05 05:59:26;;;;;;;1999.90;999.90;;;;;;;5.53;100.00;95613.22;5065512;28;20174;-74
2023/04/05 06:01:51;;;;;;;1999.90;999.90;;;;;;;5.84;100.00;95604.78;5066039;28;20443;-73
2023/04/05 06:04:18;;;;;;;1999.90;999.90;;;;;;;5.92;100.00;95611.84;5065449;28;20169;-71
2023/04/05 06:06:45;;;;;;;1999.90;999.90;;;;;;;6.41;100.00;95607.81;5065543;28;20188;-73
2023/04/05 06:09:11;;;;;;;1999.90;999.90;;;;;;;7.04;100.00;95607.66;5065499;28;20174;-72
2023/04/05 06:11:36;;;;;;;1999.90;999.90;;;;;;;7.28;100.00;95609.78;5065255;28;20236;-77
2023/04/05 06:14:02;;;;;;;1999.90;999.90;;;;;;;7.66;100.00;95601.13;5065286;28;20180;-79
2023/04/05 06:16:29;;;;;;;1999.90;999.90;;;;;;;8.04;100.00;95607.94;5065297;28;20184;-71
2023/04/05 06:18:55;;;;;;;1999.90;999.90;;;;;;;8.08;91.57;95611.47;5065307;28;20204;-72
2023/04/05 06:21:20;;;;;;;1999.90;999.90;;;;;;;7.86;92.21;95616.00;5065264;28;20174;-78
2023/04/05 06:23:46;;;;;;;1999.90;999.90;;;;;;;8.11;94.33;95611.47;5065648;28;20467;-76
2023/04/05 06:26:17;;;;;;;1999.90;999.90;;;;;;;9.18;84.96;95616.84;5065260;28;20208;-77
2023/04/05 06:28:43;;;;;;;1999.90;999.90;;;;;;;8.84;81.41;95621.84;5065513;28;20207;-74
2023/04/05 06:31:08;;;;;;;1999.90;999.90;;;;;;;8.40;81.34;95618.63;5064748;28;20245;-73
2023/04/05 06:33:34;;;;;;;1999.90;999.90;;;;;;;9.02;81.54;95614.50;5064863;28;20180;-74
2023/04/05 06:36:00;;;;;;;1999.90;999.90;;;;;;;8.29;81.48;95606.91;5065513;28;20170;-75
2023/04/05 06:38:25;;;;;;;1999.90;999.90;;;;;;;8.39;78.70;95611.63;5065513;28;20174;-75
2023/04/05 06:40:50;;;;;;;1999.90;999.90;;;;;;;7.73;85.32;95612.06;5065689;28;20178;-74
2023/04/05 06:43:16;;;;;;;1999.90;999.90;;;;;;;7.90;83.39;95616.78;5064367;28;20236;-73
2023/04/05 06:45:41;;;;;;;1999.90;999.90;;;;;;;8.12;82.84;95607.59;5065353;28;20185;-75
2023/04/05 06:48:07;;;;;;;1999.90;999.90;;;;;;;7.88;85.94;95613.69;5064769;28;20173;-74
2023/04/05 06:50:32;;;;;;;1999.90;999.90;;;;;;;8.53;80.79;95606.19;5064760;28;20205;-75
2023/04/05 06:52:57;;;;;;;1999.90;999.90;;;;;;;7.85;82.52;95614.44;5064762;28;20166;-74
2023/04/05 06:55:23;;;;;;;1999.90;999.90;;;;;;;9.04;77.75;95609.41;5064514;28;20194;-72
2023/04/05 06:57:48;;;;;;;1999.90;999.90;;;;;;;9.05;76.37;95612.94;5065067;28;20241;-75
2023/04/05 07:00:16;;;;;;;1999.90;999.90;;;;;;;8.24;77.09;95611.94;5064456;28;20176;-74
2023/04/05 07:02:41;;;;;;;1999.90;999.90;;;;;;;7.86;80.71;95609.81;5064511;28;20248;-76
2023/04/05 07:05:07;;;;;;;1999.90;999.90;;;;;;;7.58;84.13;95610.38;5064405;28;20181;-72
2023/04/05 07:07:37;;;;;;;1999.90;999.90;;;;;;;8.75;81.53;95599.66;5064236;28;20174;-73
2023/04/05 07:10:03;;;;;;;1999.90;999.90;;;;;;;8.69;74.70;95603.94;5064330;28;20181;-73
2023/04/05 07:12:28;;;;;;;1999.90;999.90;;;;;;;7.82;77.13;95601.59;5064284;28;20272;-72
2023/04/05 07:14:54;;;;;;;1999.90;999.90;;;;;;;8.74;77.18;95600.81;5064729;28;20202;-73
2023/04/05 07:17:19;;;;;;;1999.90;999.90;;;;;;;8.49;75.10;95610.84;5064769;28;20170;-71
2023/04/05 07:19:45;;;;;;;1999.90;999.90;;;;;;;8.32;76.56;95595.28;5064878;28;20170;-71
2023/04/05 07:22:10;;;;;;;1999.90;999.90;;;;;;;8.54;77.67;95605.06;5064848;28;20459;-69
2023/04/05 07:24:36;;;;;;;1999.90;999.90;;;;;;;7.97;78.85;95605.97;5064560;28;20182;-69
2023/04/05 07:27:01;;;;;;;1999.90;999.90;;;;;;;8.40;76.23;95602.28;5064566;28;20245;-69
2023/04/05 07:29:27;;;;;;;1999.90;999.90;;;;;;;9.17;71.86;95596.19;5064001;28;20222;-69
2023/04/05 07:31:52;;;;;;;1999.90;999.90;;;;;;;9.31;68.71;95597.00;5064248;28;20243;-70
2023/04/05 07:34:19;;;;;;;1999.90;999.90;;;;;;;9.29;70.99;95604.78;5064015;28;20235;-70
2023/04/05 07:36:45;;;;;;;1999.90;999.90;;;;;;;10.00;66.21;95603.53;5063968;28;20174;-71
2023/04/05 07:39:11;;;;;;;1999.90;999.90;;;;;;;11.44;62.60;95599.25;5064389;28;20285;-69
2023/04/05 07:41:37;;;;;;;1999.90;999.90;;;;;;;9.81;61.02;95614.84;5063707;28;20174;-69
2023/04/05 07:44:02;;;;;;;1999.90;999.90;;;;;;;11.76;56.85;95616.97;5064220;28;20232;-70
2023/04/05 07:46:28;;;;;;;1999.90;999.90;;;;;;;11.23;56.36;95615.81;5064349;28;20174;-69
2023/04/05 07:48:54;;;;;;;1999.90;999.90;;;;;;;10.41;58.87;95613.94;5064270;28;20174;-70
2023/04/05 07:51:19;;;;;;;1999.90;999.90;;;;;;;11.71;55.81;95617.41;5063713;28;20275;-68
2023/04/05 07:53:45;;;;;;;1999.90;999.90;;;;;;;12.33;51.20;95617.16;5063806;28;20271;-67
2023/04/05 07:56:13;;;;;;;1999.90;999.90;;;;;;;12.53;52.15;95616.13;5063981;28;20241;-68
2023/04/05 07:58:40;;;;;;;1999.90;999.90;;;;;;;11.74;52.79;95613.88;5063670;28;20184;-68
2023/04/05 08:01:06;;;;;;;1999.90;999.90;;;;;;;11.69;50.00;95627.19;5063491;28;20200;-69
2023/04/05 08:03:33;;;;;;;1999.90;999.90;;;;;;;10.26;52.05;95639.75;5063343;28;20412;-68
2023/04/05 08:06:07;;;;;;;1999.90;999.90;;;;;;;10.80;54.92;95626.22;5063569;28;20185;-69
2023/04/05 08:08:33;;;;;;;1999.90;999.90;;;;;;;11.43;50.26;95631.28;5063817;28;20170;-67
2023/04/05 08:10:58;;;;;;;1999.90;999.90;;;;;;;11.61;48.25;95631.16;5063322;28;20212;-69
2023/04/05 08:13:23;;;;;;;1999.90;999.90;;;;;;;10.84;50.40;95623.47;5063541;28;20245;-69
2023/04/05 08:15:49;;;;;;;1999.90;999.90;;;;;;;10.74;50.98;95616.13;5064958;28;20178;-68
2023/04/05 08:18:14;;;;;;;1999.90;999.90;;;;;;;11.15;48.02;95636.19;5067562;28;20174;-68
2023/04/05 08:20:40;;;;;;;1999.90;999.90;;;;;;;11.93;48.37;95623.44;5067268;28;20368;-69
2023/04/05 08:23:05;;;;;;;1999.90;999.90;;;;;;;12.86;46.03;95611.81;5067621;28;20248;-70
2023/04/05 08:25:30;;;;;;;1999.90;999.90;;;;;;;12.69;44.53;95623.78;5067882;28;20183;-69
2023/04/05 08:27:56;;;;;;;1999.90;999.90;;;;;;;12.25;46.83;95615.69;5068171;28;20459;-68
2023/04/05 08:30:22;;;;;;;1999.90;999.90;;;;;;;11.90;47.24;95616.03;5067358;28;20252;-67
2023/04/05 08:32:48;;;;;;;1999.90;999.90;;;;;;;11.24;48.47;95620.88;5067206;28;20219;-69
2023/04/05 08:35:14;;;;;;;1999.90;999.90;;;;;;;12.56;47.31;95615.31;5067775;28;20166;-69
2023/04/05 08:37:39;;;;;;;1999.90;999.90;;;;;;;13.33;42.69;95627.19;5067244;28;20177;-71
2023/04/05 08:40:07;;;;;;;1999.90;999.90;;;;;;;12.93;42.73;95617.19;5067200;28;20245;-70
2023/04/05 08:42:56;;;;;;;1999.90;999.90;;;;;;;11.45;44.67;95628.16;5067215;28;20504;-70
2023/04/05 08:45:24;;;;;;;1999.90;999.90;;;;;;;9.43;48.82;95631.25;5067648;28;20158;-70
2023/04/05 08:47:52;;;;;;;1999.90;999.90;;;;;;;9.36;55.02;95626.56;5067075;28;20189;-72
2023/04/05 08:50:17;;;;;;;1999.90;999.90;;;;;;;10.18;49.64;95627.25;5067798;28;20177;-73
2023/04/05 08:52:48;;;;;;;1999.90;999.90;;;;;;;10.84;51.02;95620.75;5067257;28;20273;-70
2023/04/05 08:55:14;;;;;;;1999.90;999.90;;;;;;;12.63;44.48;95625.41;5067341;28;20194;-69
2023/04/05 08:57:43;;;;;;;1999.90;999.90;;;;;;;10.45;45.09;95626.38;5066826;28;20170;-70
2023/04/05 09:00:10;;;;;;;1999.90;999.90;;;;;;;10.10;46.95;95627.28;5067078;28;20181;-69
2023/04/05 09:02:37;;;;;;;1999.90;999.90;;;;;;;10.65;46.28;95623.97;5066595;28;20362;-71
2023/04/05 09:05:07;;;;;;;1999.90;999.90;;;;;;;11.25;43.59;95624.41;5066856;28;20170;-70
2023/04/05 09:07:35;;;;;;;1999.90;999.90;;;;;;;9.74;47.36;95625.78;5066689;28;20170;-70
2023/04/05 09:10:04;;;;;;;1999.90;999.90;;;;;;;10.56;45.23;95620.91;5066925;28;20170;-72
2023/04/05 09:12:31;;;;;;;1999.90;999.90;;;;;;;10.41;46.10;95627.59;5066962;28;20229;-71
2023/04/05 09:14:59;;;;;;;1999.90;999.90;;;;;;;10.76;45.88;95619.22;5066804;28;20182;-73
2023/04/05 09:17:26;;;;;;;1999.90;999.90;;;;;;;9.39;48.21;95631.25;5066160;28;20216;-71
2023/04/05 09:19:51;;;;;;;1999.90;999.90;;;;;;;9.55;48.37;95628.91;5066311;28;20181;-69
2023/04/05 09:22:19;;;;;;;1999.90;999.90;;;;;;;8.06;51.08;95636.31;5066889;28;20178;-69
2023/04/05 09:24:45;;;;;;;1999.90;999.90;;;;;;;10.20;47.13;95619.47;5066300;28;20181;-72
2023/04/05 09:27:16;;;;;;;1999.90;999.90;;;;;;;8.43;46.07;95636.13;5065321;28;20204;-69
2023/04/05 09:29:44;;;;;;;1999.90;999.90;;;;;;;9.00;49.04;95629.66;5066060;28;20228;-70
2023/04/05 09:32:10;;;;;;;1999.90;999.90;;;;;;;10.42;47.60;95627.19;5066013;28;20397;-71
2023/04/05 09:34:37;;;;;;;1999.90;999.90;;;;;;;10.93;44.72;95618.34;5066178;28;20209;-70
2023/04/05 09:37:12;;;;;;;1999.90;999.90;;;;;;;11.05;42.43;95620.63;5066662;28;20200;-70
2023/04/05 09:39:37;;;;;;;1999.90;999.90;;;;;;;12.71;40.58;95615.91;5066036;28;20240;-72
2023/04/05 09:42:08;;;;;;;1999.90;999.90;;;;;;;10.93;42.20;95621.09;5066375;28;20189;-71
2023/04/05 09:44:53;;;;;;;1999.90;999.90;;;;;;;11.40;44.34;95615.66;5065978;28;20174;-71
2023/04/05 09:47:20;;;;;;;1999.90;999.90;;;;;;;10.21;43.76;95621.03;5065877;28;20185;-71
2023/04/05 09:49:45;;;;;;;1999.90;999.90;;;;;;;10.22;43.82;95611.66;5065723;28;20174;-72
2023/04/05 09:52:28;;;;;;;1999.90;999.90;;;;;;;11.65;42.14;95615.53;5066509;28;20208;-71
2023/04/05 09:54:56;;;;;;;1999.90;999.90;;;;;;;9.88;43.27;95623.00;5065792;28;20205;-70
2023/04/05 09:57:22;;;;;;;1999.90;999.90;;;;;;;9.40;45.87;95627.34;5065647;28;20174;-72
2023/04/05 09:59:48;;;;;;;1999.90;999.90;;;;;;;10.51;45.17;95613.09;5065750;28;20222;-72
2023/04/05 10:02:15;;;;;;;1999.90;999.90;;;;;;;10.81;44.13;95614.13;5065687;28;20203;-72
2023/04/05 10:04:43;;;;;;;1999.90;999.90;;;;;;;11.04;43.73;95613.59;5065592;28;20201;-71
2023/04/05 10:07:12;;;;;;;1999.90;999.90;;;;;;;11.62;41.83;95616.31;5066062;28;20174;-72
2023/04/05 10:09:41;;;;;;;1999.90;999.90;;;;;;;11.08;41.65;95617.09;5065607;28;20173;-71
2023/04/05 10:12:08;;;;;;;1999.90;999.90;;;;;;;11.36;41.56;95608.69;5065829;28;20271;-68
2023/04/05 10:14:38;;;;;;;1999.90;999.90;;;;;;;11.52;41.38;95608.94;5065898;28;20178;-69
2023/04/05 10:17:27;;;;;;;1999.90;999.90;;;;;;;12.23;40.38;95613.34;5065986;28;20177;-69
2023/04/05 10:20:01;;;;;;;1999.90;999.90;;;;;;;11.34;41.20;95614.56;5064731;28;20178;-68
2023/04/05 10:22:43;;;;;;;1999.90;999.90;;;;;;;11.52;41.40;95611.69;5065247;28;20220;-69
2023/04/05 10:25:20;;;;;;;1999.90;999.90;;;;;;;11.81;40.71;95602.84;5065227;28;20173;-71
2023/04/05 10:27:52;;;;;;;1999.90;999.90;;;;;;;11.99;40.38;95597.19;5065391;28;20470;-71
2023/04/05 10:30:17;;;;;;;1999.90;999.90;;;;;;;12.54;39.14;95595.75;5065210;28;20289;-70
2023/04/05 10:33:09;;;;;;;1999.90;999.90;;;;;;;11.53;39.77;95596.81;5064924;28;20205;-69
2023/04/05 10:35:53;;;;;;;1999.90;999.90;;;;;;;10.09;43.12;95598.44;5065442;28;20189;-71
2023/04/05 10:38:26;;;;;;;1999.90;999.90;;;;;;;11.63;40.56;95595.97;5065047;28;20162;-70
2023/04/05 10:41:15;;;;;;;1999.90;999.90;;;;;;;12.14;39.31;95593.91;5064796;28;20201;-68
2023/04/05 10:43:41;;;;;;;1999.90;999.90;;;;;;;11.49;40.33;95593.34;5065224;28;20193;-68
2023/04/05 10:46:09;;;;;;;1999.90;999.90;;;;;;;10.57;43.01;95606.06;5064230;28;20173;-68
2023/04/05 10:48:48;;;;;;;1999.90;999.90;;;;;;;10.55;41.81;95595.53;5064523;28;20200;-68
2023/04/05 10:51:14;;;;;;;1999.90;999.90;;;;;;;10.72;42.22;95599.34;5064612;28;20201;-66
2023/04/05 10:53:40;;;;;;;1999.90;999.90;;;;;;;11.34;40.37;95594.63;5064537;28;20247;-68